Página principal
METAR-TAF:

METAR-TAF

Aeroportos :

Aeroporto Internacional de Ecaterimburgo-Koltsovo

Ecaterimburgo, Rússia

latitude: 56-50N, longitude: 060-38E, altura: 237 m

Observação actual do tempo

O boletim foi feito há 39 minutos, às 02:30 UTC
Vento calmo
Temperatura -2°C
Humidade 59%
Pressão 1024 hPa
Visibilidade 10 km ou mais
sem nuvens abaixo de 1500 metros e sem cumulonimbus

METAR: USSS 190230Z 00000MPS CAVOK M02/M09 Q1024 R26R/120050 NOSIG RMK QFE747/0996

Hora: 08:09 (03:09 UTC)

Previsão

O boletim foi feito há 1 hora e 14 minutos, às 01:55 UTC
Previsão válida de 19 às 03 UTC a 20 às 03 UTC
Vento 6 kt de oeste
Visibilidade 10 km ou mais
Nuvens dispersasa uma altura de 3000 ft
Tornando-se
de 19 às 06 UTC a 19 às 08 UTC
Vento 6 kt de oes-noroeste com rajadas de 19 kt

TAF: USSS 190155Z 1903/2003 27003MPS 9999 SCT030 BECMG 1906/1908 29003G10MPS

Observações e previsões do tempo de mais de 4000 aeroportos (mensagens METAR e TAF).

As estações disponíveis são os pontos amarelos e vermelhos sobre o mapa.

Mova o rato sobre o mapa para ver o nome da estação.

Depois clique no ponto para visualizar as observações e previsões meteorológicas.

Para alterar o mapa : clique nos botões verdes com uma cruz preta para aumentar o zoom; no botão verde com uma pitada de zoom; ou nas setas verdes para mapas adjacentes.


METAR-TAF: